createdAt,value
2023-05-07T00:01:35.588Z,14.60
2023-05-07T00:04:05.934Z,14.61
2023-05-07T00:06:36.907Z,14.60
2023-05-07T00:09:07.326Z,14.61
2023-05-07T00:11:40.290Z,14.60
2023-05-07T00:14:10.409Z,14.61
2023-05-07T00:16:40.703Z,14.63
2023-05-07T00:19:10.914Z,14.62
2023-05-07T00:21:41.406Z,14.62
2023-05-07T00:24:11.754Z,14.65
2023-05-07T00:26:44.694Z,14.66
2023-05-07T00:29:15.257Z,14.65
2023-05-07T00:31:45.731Z,14.64
2023-05-07T00:34:15.953Z,14.61
2023-05-07T00:36:46.175Z,14.62
2023-05-07T00:39:16.410Z,14.60
2023-05-07T00:41:49.328Z,14.61
2023-05-07T00:44:19.754Z,14.60
2023-05-07T00:46:51.187Z,14.60
2023-05-07T00:49:22.777Z,14.53
2023-05-07T00:51:54.253Z,14.53
2023-05-07T00:54:25.176Z,14.54
2023-05-07T00:56:59.012Z,14.52
2023-05-07T00:59:29.302Z,14.51
2023-05-07T01:01:59.537Z,14.53
2023-05-07T01:04:30.932Z,14.53
2023-05-07T01:07:02.780Z,14.46
2023-05-07T01:09:33.855Z,14.49
2023-05-07T01:12:07.763Z,14.49
2023-05-07T01:14:38.731Z,14.49
2023-05-07T01:17:09.630Z,14.47
2023-05-07T01:19:40.030Z,14.45
2023-05-07T01:22:12.986Z,14.45
2023-05-07T01:24:55.368Z,14.43
2023-05-07T01:27:25.786Z,14.44
2023-05-07T01:29:56.779Z,14.42
2023-05-07T01:32:33.283Z,14.42
2023-05-07T01:35:11.909Z,14.43
2023-05-07T01:37:45.636Z,14.40
2023-05-07T01:40:18.927Z,14.37
2023-05-07T01:42:52.252Z,14.37
2023-05-07T01:45:22.616Z,14.34
2023-05-07T01:47:53.729Z,14.30
2023-05-07T01:50:27.337Z,14.27
2023-05-07T01:52:57.862Z,14.24
2023-05-07T01:55:33.820Z,14.23
2023-05-07T01:58:04.241Z,14.23
2023-05-07T02:00:34.612Z,14.20
2023-05-07T02:03:05.021Z,14.16
2023-05-07T02:05:43.520Z,14.12
2023-05-07T02:08:20.842Z,14.06
2023-05-07T02:10:55.108Z,14.05
2023-05-07T02:13:26.191Z,14.04
2023-05-07T02:15:56.732Z,14.03
2023-05-07T02:18:28.403Z,14.01
2023-05-07T02:20:58.628Z,14.00
2023-05-07T02:23:29.025Z,14.00
2023-05-07T02:26:01.854Z,14.00
2023-05-07T02:28:32.495Z,13.97
2023-05-07T02:31:06.947Z,13.91
2023-05-07T02:33:38.459Z,13.86
2023-05-07T02:36:11.914Z,13.86
2023-05-07T02:39:04.050Z,13.83
2023-05-07T02:41:36.944Z,13.75
2023-05-07T02:44:07.456Z,13.75
2023-05-07T02:46:37.913Z,13.73
2023-05-07T02:49:12.473Z,13.78
2023-05-07T02:51:42.716Z,13.74
2023-05-07T02:54:17.160Z,13.73
2023-05-07T02:56:50.499Z,13.76
2023-05-07T02:59:20.743Z,13.76
2023-05-07T03:01:53.187Z,13.77
2023-05-07T03:04:23.420Z,13.77
2023-05-07T03:06:53.670Z,13.78
2023-05-07T03:09:24.129Z,13.75
2023-05-07T03:11:56.854Z,13.73
2023-05-07T03:14:27.321Z,13.70
2023-05-07T03:16:57.762Z,13.67
2023-05-07T03:19:28.316Z,13.70
2023-05-07T03:21:58.636Z,13.72
2023-05-07T03:24:28.848Z,13.67
2023-05-07T03:27:02.327Z,13.66
2023-05-07T03:29:33.152Z,13.65
2023-05-07T03:32:03.302Z,13.62
2023-05-07T03:34:33.625Z,13.59
2023-05-07T03:37:06.826Z,13.55
2023-05-07T03:39:37.004Z,13.58
2023-05-07T03:42:10.465Z,13.57
2023-05-07T03:44:41.548Z,13.52
2023-05-07T03:47:11.824Z,13.51
2023-05-07T03:49:42.917Z,13.56
2023-05-07T03:52:13.324Z,13.58
2023-05-07T03:54:43.669Z,13.61
2023-05-07T03:57:18.928Z,13.55
2023-05-07T03:59:49.160Z,13.62
2023-05-07T04:02:19.652Z,13.66
2023-05-07T04:04:50.220Z,13.67
2023-05-07T04:07:21.655Z,13.67
2023-05-07T04:09:54.150Z,13.68
2023-05-07T04:12:27.281Z,13.65
2023-05-07T04:14:57.521Z,13.66
2023-05-07T04:17:28.202Z,13.64
2023-05-07T04:19:58.468Z,13.66
2023-05-07T04:22:29.751Z,13.69
2023-05-07T04:25:00.304Z,13.65
2023-05-07T04:27:33.917Z,13.65
2023-05-07T04:30:04.099Z,13.59
2023-05-07T04:32:38.817Z,13.58
2023-05-07T04:35:10.618Z,13.55
2023-05-07T04:37:41.291Z,13.53
2023-05-07T04:40:12.670Z,13.52
2023-05-07T04:42:45.820Z,13.46
2023-05-07T04:45:16.548Z,13.44
2023-05-07T04:47:48.953Z,13.51
2023-05-07T04:50:20.525Z,13.53
2023-05-07T04:52:52.451Z,13.53
2023-05-07T04:55:22.936Z,13.55
2023-05-07T04:57:56.852Z,13.59
2023-05-07T05:00:28.279Z,13.67
2023-05-07T05:03:01.144Z,13.74
2023-05-07T05:05:32.822Z,13.76
2023-05-07T05:08:03.799Z,13.76
2023-05-07T05:10:34.009Z,13.73
2023-05-07T05:13:06.871Z,13.68
2023-05-07T05:15:37.195Z,13.66
2023-05-07T05:18:07.711Z,13.64
2023-05-07T05:20:39.768Z,13.62
2023-05-07T05:23:11.690Z,13.60
2023-05-07T05:25:41.967Z,13.62
2023-05-07T05:28:17.424Z,13.67
2023-05-07T05:30:47.648Z,13.69
2023-05-07T05:33:18.119Z,13.70
2023-05-07T05:35:48.346Z,13.74
2023-05-07T05:38:19.029Z,13.75
2023-05-07T05:40:49.549Z,13.78
2023-05-07T05:43:22.360Z,13.67
2023-05-07T05:45:52.815Z,13.69
2023-05-07T05:48:23.892Z,13.67
2023-05-07T05:50:54.247Z,13.67
2023-05-07T05:53:24.557Z,13.71
2023-05-07T05:55:54.928Z,13.64
2023-05-07T05:58:28.624Z,13.66
2023-05-07T06:01:04.034Z,13.47
2023-05-07T06:03:34.742Z,13.50
2023-05-07T06:06:09.599Z,13.44
2023-05-07T06:08:39.798Z,13.36
2023-05-07T06:11:10.485Z,13.30
2023-05-07T06:13:46.138Z,13.41
2023-05-07T06:16:16.587Z,13.60
2023-05-07T06:18:47.828Z,13.72
2023-05-07T06:21:19.399Z,13.66
2023-05-07T06:23:49.585Z,13.66
2023-05-07T06:26:19.787Z,13.83
2023-05-07T06:29:00.130Z,13.96
2023-05-07T06:31:33.812Z,13.91
2023-05-07T06:34:10.285Z,13.91
2023-05-07T06:36:41.984Z,13.90
2023-05-07T06:39:41.440Z,13.91
2023-05-07T06:42:11.610Z,13.79
2023-05-07T06:44:48.148Z,13.89
2023-05-07T06:47:20.844Z,13.89
2023-05-07T06:49:55.174Z,13.80
2023-05-07T06:52:28.592Z,13.78
2023-05-07T06:54:59.103Z,13.79
2023-05-07T06:57:30.420Z,13.83
2023-05-07T07:00:03.272Z,13.77
2023-05-07T07:02:35.762Z,13.67
2023-05-07T07:05:06.025Z,13.78
2023-05-07T07:07:36.395Z,13.94
2023-05-07T07:10:07.257Z,14.05
2023-05-07T07:12:38.446Z,14.06
2023-05-07T07:15:12.291Z,14.13
2023-05-07T07:17:42.743Z,14.15
2023-05-07T07:20:14.290Z,14.12
2023-05-07T07:22:46.970Z,14.13
2023-05-07T07:25:18.446Z,14.14
2023-05-07T07:27:49.038Z,14.21
2023-05-07T07:30:22.460Z,14.15
2023-05-07T07:32:54.015Z,14.12
2023-05-07T07:35:25.775Z,14.17
2023-05-07T07:37:56.746Z,14.23
2023-05-07T07:40:27.278Z,14.16
2023-05-07T07:42:58.358Z,14.24
2023-05-07T07:45:31.554Z,14.25
2023-05-07T07:48:01.980Z,14.19
2023-05-07T07:50:44.464Z,14.20
2023-05-07T07:53:18.705Z,14.23
2023-05-07T07:55:49.221Z,14.27
2023-05-07T07:58:23.320Z,14.32
2023-05-07T08:00:57.163Z,14.40
2023-05-07T08:03:29.347Z,14.58
2023-05-07T08:06:02.457Z,14.80
2023-05-07T08:08:34.109Z,14.93
2023-05-07T08:11:04.393Z,14.84
2023-05-07T08:13:37.156Z,14.78
2023-05-07T08:16:10.406Z,14.68
2023-05-07T08:18:41.217Z,14.67
2023-05-07T08:21:12.272Z,14.77
2023-05-07T08:23:43.267Z,14.76
2023-05-07T08:26:13.715Z,14.85
2023-05-07T08:28:43.999Z,15.21
2023-05-07T08:31:16.898Z,15.66
2023-05-07T08:33:48.764Z,16.10
2023-05-07T08:36:20.490Z,16.35
2023-05-07T08:38:50.981Z,16.35
2023-05-07T08:41:21.585Z,16.17
2023-05-07T08:43:53.575Z,16.06
2023-05-07T08:46:27.117Z,15.92
2023-05-07T08:48:59.819Z,15.95
2023-05-07T08:51:30.792Z,15.95
2023-05-07T08:54:02.253Z,15.92
2023-05-07T08:56:36.042Z,16.01
2023-05-07T08:59:06.555Z,16.00
2023-05-07T09:01:39.953Z,16.12
2023-05-07T09:04:10.890Z,16.12
2023-05-07T09:06:43.221Z,16.33
2023-05-07T09:09:18.744Z,16.62
2023-05-07T09:11:49.610Z,16.71
2023-05-07T09:14:25.765Z,16.82
2023-05-07T09:16:59.581Z,16.91
2023-05-07T09:19:30.941Z,16.87
2023-05-07T09:22:04.949Z,16.94
2023-05-07T09:24:44.858Z,16.91
2023-05-07T09:27:15.688Z,16.78
2023-05-07T09:29:51.053Z,16.79
2023-05-07T09:32:28.535Z,16.85
2023-05-07T09:34:58.946Z,16.90
2023-05-07T09:37:30.906Z,17.17
2023-05-07T09:40:01.238Z,18.21
2023-05-07T09:42:33.848Z,18.57
2023-05-07T09:45:10.579Z,18.78
2023-05-07T09:47:49.316Z,19.19
2023-05-07T09:50:21.898Z,19.17
2023-05-07T09:52:52.970Z,19.37
2023-05-07T09:55:23.692Z,19.73
2023-05-07T09:57:55.139Z,19.62
2023-05-07T10:00:26.634Z,19.49
2023-05-07T10:03:07.682Z,19.37
2023-05-07T10:05:50.264Z,19.23
2023-05-07T10:08:24.697Z,19.13
2023-05-07T10:10:59.543Z,19.32
2023-05-07T10:13:32.094Z,19.69
2023-05-07T10:16:06.601Z,19.54
2023-05-07T10:18:47.370Z,19.86
2023-05-07T10:21:24.494Z,19.75
2023-05-07T10:24:02.928Z,20.03
2023-05-07T10:26:36.883Z,20.92
2023-05-07T10:29:11.450Z,21.97
2023-05-07T10:31:58.015Z,22.61
2023-05-07T10:34:47.606Z,23.04
2023-05-07T10:37:18.133Z,23.38
2023-05-07T10:39:49.322Z,23.81
2023-05-07T10:42:19.815Z,24.64
2023-05-07T10:44:54.728Z,24.68
2023-05-07T10:47:29.411Z,25.04
2023-05-07T10:50:29.688Z,25.62
2023-05-07T10:53:27.163Z,25.76
2023-05-07T10:56:33.107Z,26.00
2023-05-07T10:59:43.335Z,26.72
2023-05-07T11:02:22.286Z,27.22
2023-05-07T11:05:24.787Z,27.28
2023-05-07T11:08:20.312Z,27.83
2023-05-07T11:11:01.012Z,27.92
2023-05-07T11:13:47.608Z,27.76
2023-05-07T11:16:39.049Z,28.06
2023-05-07T11:19:19.279Z,27.59
2023-05-07T11:21:52.982Z,27.43
2023-05-07T11:24:48.100Z,27.84
2023-05-07T11:27:18.599Z,27.78
2023-05-07T11:29:51.333Z,28.14
2023-05-07T11:32:26.883Z,28.69
2023-05-07T11:34:58.431Z,29.20
2023-05-07T11:37:31.017Z,29.51
2023-05-07T11:40:15.333Z,29.74
2023-05-07T11:42:46.099Z,29.80
2023-05-07T11:45:16.257Z,30.01
2023-05-07T11:47:46.601Z,29.87
2023-05-07T11:50:19.799Z,29.78
2023-05-07T11:52:55.373Z,29.66
2023-05-07T11:55:28.511Z,29.83
2023-05-07T11:57:58.678Z,30.35
2023-05-07T12:00:29.054Z,30.07
2023-05-07T12:02:59.712Z,30.16
2023-05-07T12:05:30.299Z,30.11
2023-05-07T12:08:01.013Z,30.42
2023-05-07T12:10:34.137Z,30.88
2023-05-07T12:13:04.480Z,30.99
2023-05-07T12:15:34.852Z,30.99
2023-05-07T12:18:05.809Z,31.50
2023-05-07T12:20:36.124Z,31.83
2023-05-07T12:23:06.898Z,31.65
2023-05-07T12:25:43.587Z,31.85
2023-05-07T12:28:17.364Z,32.20
2023-05-07T12:30:48.504Z,32.19
2023-05-07T12:33:22.860Z,31.93
2023-05-07T12:35:53.073Z,31.63
2023-05-07T12:38:23.244Z,30.87
2023-05-07T12:40:58.450Z,30.55
2023-05-07T12:43:30.119Z,30.47
2023-05-07T12:46:01.297Z,29.99
2023-05-07T12:48:31.524Z,29.42
2023-05-07T12:51:03.461Z,29.56
2023-05-07T12:53:34.252Z,30.12
2023-05-07T12:56:10.188Z,30.27
2023-05-07T12:58:40.992Z,30.64
2023-05-07T13:01:16.680Z,30.49
2023-05-07T13:03:52.687Z,29.99
2023-05-07T13:06:23.086Z,29.57
2023-05-07T13:08:53.229Z,29.52
2023-05-07T13:11:26.987Z,29.78
2023-05-07T13:13:57.153Z,29.84
2023-05-07T13:16:27.372Z,30.57
2023-05-07T13:18:57.548Z,30.86
2023-05-07T13:21:28.260Z,31.41
2023-05-07T13:23:59.234Z,31.39
2023-05-07T13:26:33.830Z,31.20
2023-05-07T13:29:04.037Z,31.19
2023-05-07T13:31:35.070Z,31.69
2023-05-07T13:34:05.355Z,32.19
2023-05-07T13:36:38.346Z,32.69
2023-05-07T13:39:08.655Z,32.75
2023-05-07T13:41:41.749Z,33.10
2023-05-07T13:44:12.039Z,32.56
2023-05-07T13:46:42.244Z,32.73
2023-05-07T13:49:13.664Z,32.93
2023-05-07T13:51:43.811Z,32.67
2023-05-07T13:54:13.952Z,32.69
2023-05-07T13:56:46.756Z,32.13
2023-05-07T13:59:19.168Z,32.10
2023-05-07T14:01:49.412Z,31.02
2023-05-07T14:04:19.606Z,30.49
2023-05-07T14:06:49.701Z,31.58
2023-05-07T14:09:19.886Z,32.68
2023-05-07T14:11:53.271Z,32.91
2023-05-07T14:14:23.654Z,31.60
2023-05-07T14:16:53.843Z,30.56
2023-05-07T14:19:24.736Z,30.67
2023-05-07T14:21:55.293Z,30.44
2023-05-07T14:24:37.549Z,29.15
2023-05-07T14:27:11.252Z,27.96
2023-05-07T14:29:41.615Z,27.16
2023-05-07T14:32:11.840Z,26.66
2023-05-07T14:34:42.124Z,27.26
2023-05-07T14:37:12.337Z,27.31
2023-05-07T14:39:42.781Z,26.29
2023-05-07T14:42:15.701Z,26.00
2023-05-07T14:44:46.715Z,27.14
2023-05-07T14:47:19.059Z,26.46
2023-05-07T14:49:50.166Z,25.32
2023-05-07T14:52:20.325Z,24.25
2023-05-07T14:54:50.469Z,24.05
2023-05-07T14:57:23.771Z,25.37
2023-05-07T14:59:54.012Z,27.25
2023-05-07T15:02:24.265Z,27.28
2023-05-07T15:04:54.480Z,26.15
2023-05-07T15:07:24.635Z,25.25
2023-05-07T15:09:55.432Z,24.34
2023-05-07T15:12:28.393Z,23.64
2023-05-07T15:14:58.534Z,24.89
2023-05-07T15:17:28.758Z,25.33
2023-05-07T15:19:58.958Z,25.39
2023-05-07T15:22:29.185Z,25.79
2023-05-07T15:24:59.992Z,25.89
2023-05-07T15:27:33.149Z,25.65
2023-05-07T15:30:03.458Z,24.98
2023-05-07T15:32:35.397Z,24.21
2023-05-07T15:35:05.684Z,23.78
2023-05-07T15:37:36.029Z,23.13
2023-05-07T15:40:07.794Z,22.77
2023-05-07T15:42:40.624Z,22.54
2023-05-07T15:45:12.928Z,22.00
2023-05-07T15:47:43.433Z,21.82
2023-05-07T15:50:14.395Z,21.49
2023-05-07T15:52:46.174Z,21.22
2023-05-07T15:55:16.535Z,21.03
2023-05-07T15:57:49.347Z,20.74
2023-05-07T16:00:20.023Z,20.43
2023-05-07T16:02:50.260Z,20.15
2023-05-07T16:05:20.479Z,19.98
2023-05-07T16:07:50.770Z,19.86
2023-05-07T16:10:21.330Z,19.74
2023-05-07T16:12:54.533Z,19.71
2023-05-07T16:15:25.185Z,19.62
2023-05-07T16:17:58.504Z,19.43
2023-05-07T16:20:32.645Z,19.32
2023-05-07T16:23:03.004Z,19.17
2023-05-07T16:25:33.300Z,19.09
2023-05-07T16:28:06.728Z,19.09
2023-05-07T16:30:36.986Z,19.00
2023-05-07T16:33:08.363Z,18.84
2023-05-07T16:35:38.545Z,18.75
2023-05-07T16:38:10.581Z,18.74
2023-05-07T16:40:41.899Z,18.63
2023-05-07T16:43:14.766Z,18.65
2023-05-07T16:45:44.925Z,18.48
2023-05-07T16:48:15.112Z,18.38
2023-05-07T16:50:45.729Z,18.30
2023-05-07T16:53:16.079Z,18.17
2023-05-07T16:55:46.483Z,18.02
2023-05-07T16:58:19.312Z,17.99
2023-05-07T17:00:51.202Z,18.06
2023-05-07T17:03:22.251Z,17.97
2023-05-07T17:05:52.726Z,17.95
2023-05-07T17:08:22.904Z,17.80
2023-05-07T17:10:53.080Z,17.83
2023-05-07T17:13:26.022Z,17.69
2023-05-07T17:15:56.293Z,17.59
2023-05-07T17:18:26.553Z,17.52
2023-05-07T17:20:56.803Z,17.46
2023-05-07T17:23:27.153Z,17.43
2023-05-07T17:25:57.344Z,17.40
2023-05-07T17:28:32.851Z,17.34
2023-05-07T17:31:02.964Z,17.28
2023-05-07T17:33:33.352Z,17.17
2023-05-07T17:36:04.015Z,17.11
2023-05-07T17:38:34.455Z,17.02
2023-05-07T17:41:04.916Z,17.05
2023-05-07T17:43:37.703Z,17.00
2023-05-07T17:46:08.075Z,16.87
2023-05-07T17:48:41.014Z,16.64
2023-05-07T17:51:11.331Z,16.56
2023-05-07T17:53:41.487Z,16.60
2023-05-07T17:56:12.964Z,16.50
2023-05-07T17:58:58.545Z,16.39
2023-05-07T18:01:29.793Z,16.23
2023-05-07T18:04:00.763Z,16.11
2023-05-07T18:06:30.975Z,16.12
2023-05-07T18:09:01.161Z,16.00
2023-05-07T18:11:33.445Z,15.82
2023-05-07T18:14:06.356Z,15.79
2023-05-07T18:16:36.626Z,15.70
2023-05-07T18:19:06.800Z,15.70
2023-05-07T18:21:37.087Z,15.60
2023-05-07T18:24:07.731Z,15.48
2023-05-07T18:26:37.935Z,15.35
2023-05-07T18:29:11.035Z,15.29
2023-05-07T18:31:41.204Z,15.21
2023-05-07T18:34:11.322Z,15.07
2023-05-07T18:36:41.645Z,15.19
2023-05-07T18:39:12.032Z,15.13
2023-05-07T18:41:42.994Z,15.06
2023-05-07T18:44:15.822Z,15.04
2023-05-07T18:46:48.033Z,14.94
2023-05-07T18:49:18.345Z,14.86
2023-05-07T18:51:48.766Z,14.80
2023-05-07T18:54:19.104Z,14.77
2023-05-07T18:56:49.325Z,14.68
2023-05-07T18:59:22.600Z,14.72
2023-05-07T19:01:53.168Z,14.69
2023-05-07T19:04:24.697Z,14.69
2023-05-07T19:06:54.941Z,14.62
2023-05-07T19:09:25.170Z,14.54
2023-05-07T19:11:55.471Z,14.50
2023-05-07T19:14:28.360Z,14.40
2023-05-07T19:16:58.947Z,14.29
2023-05-07T19:19:29.979Z,14.18
2023-05-07T19:22:00.210Z,14.10
2023-05-07T19:24:30.433Z,14.01
2023-05-07T19:27:00.835Z,13.98
2023-05-07T19:29:34.521Z,14.01
2023-05-07T19:32:04.715Z,13.91
2023-05-07T19:34:36.013Z,13.95
2023-05-07T19:37:06.775Z,13.91
2023-05-07T19:39:37.082Z,13.75
2023-05-07T19:42:07.502Z,13.68
2023-05-07T19:44:40.315Z,13.64
2023-05-07T19:47:10.641Z,13.49
2023-05-07T19:49:40.784Z,13.59
2023-05-07T19:52:10.963Z,13.65
2023-05-07T19:54:41.172Z,13.55
2023-05-07T19:57:11.520Z,13.60
2023-05-07T19:59:44.309Z,13.56
2023-05-07T20:02:15.940Z,13.64
2023-05-07T20:04:46.359Z,13.55
2023-05-07T20:07:16.663Z,13.48
2023-05-07T20:09:46.839Z,13.51
2023-05-07T20:12:18.221Z,13.49
2023-05-07T20:14:51.027Z,13.42
2023-05-07T20:17:21.198Z,13.29
2023-05-07T20:19:51.442Z,13.29
2023-05-07T20:22:21.777Z,13.23
2023-05-07T20:24:51.960Z,13.18
2023-05-07T20:27:24.992Z,13.04
2023-05-07T20:29:57.871Z,13.00
2023-05-07T20:32:28.400Z,12.97
2023-05-07T20:34:58.779Z,12.91
2023-05-07T20:37:29.762Z,12.84
2023-05-07T20:40:00.010Z,12.81
2023-05-07T20:42:30.359Z,12.79
2023-05-07T20:45:04.158Z,12.73
2023-05-07T20:47:35.704Z,12.67
2023-05-07T20:50:06.210Z,12.58
2023-05-07T20:52:36.572Z,12.51
2023-05-07T20:55:07.330Z,12.44
2023-05-07T20:57:37.514Z,12.47
2023-05-07T21:00:11.839Z,12.44
2023-05-07T21:02:42.236Z,12.44
2023-05-07T21:05:12.932Z,12.40
2023-05-07T21:07:43.149Z,12.33
2023-05-07T21:10:13.877Z,12.33
2023-05-07T21:12:44.417Z,12.29
2023-05-07T21:15:17.476Z,12.23
2023-05-07T21:17:47.663Z,12.18
2023-05-07T21:20:18.141Z,12.17
2023-05-07T21:22:48.437Z,12.14
2023-05-07T21:25:18.922Z,12.13
2023-05-07T21:27:49.151Z,12.09
2023-05-07T21:30:22.122Z,12.03
2023-05-07T21:32:53.187Z,11.96
2023-05-07T21:35:23.544Z,11.94
2023-05-07T21:37:53.686Z,11.90
2023-05-07T21:40:24.039Z,11.92
2023-05-07T21:42:54.237Z,11.90
2023-05-07T21:45:27.073Z,11.92
2023-05-07T21:47:57.340Z,11.98
2023-05-07T21:50:27.633Z,11.98
2023-05-07T21:52:57.885Z,11.96
2023-05-07T21:55:28.108Z,11.92
2023-05-07T21:58:05.489Z,11.91
2023-05-07T22:00:39.372Z,11.92
2023-05-07T22:03:09.947Z,11.94
2023-05-07T22:05:40.341Z,11.95
2023-05-07T22:08:10.566Z,11.97
2023-05-07T22:10:41.186Z,11.98
2023-05-07T22:13:11.503Z,12.01
2023-05-07T22:15:53.605Z,12.00
2023-05-07T22:18:26.905Z,12.01
2023-05-07T22:20:57.113Z,12.03
2023-05-07T22:23:27.499Z,11.99
2023-05-07T22:25:57.711Z,12.00
2023-05-07T22:28:27.932Z,11.98
2023-05-07T22:31:00.741Z,11.94
2023-05-07T22:33:30.929Z,11.98
2023-05-07T22:36:01.074Z,12.00
2023-05-07T22:38:31.478Z,12.00
2023-05-07T22:41:02.355Z,11.96
2023-05-07T22:43:32.445Z,11.89
2023-05-07T22:46:05.402Z,11.95
2023-05-07T22:48:35.908Z,11.97
2023-05-07T22:51:06.683Z,11.95
2023-05-07T22:53:37.019Z,11.96
2023-05-07T22:56:11.723Z,11.95
2023-05-07T22:58:41.969Z,11.97
2023-05-07T23:01:18.960Z,11.98
2023-05-07T23:03:49.265Z,11.94
2023-05-07T23:06:19.510Z,11.88
2023-05-07T23:08:49.949Z,11.85
2023-05-07T23:11:21.249Z,11.87
2023-05-07T23:13:51.358Z,11.85
2023-05-07T23:16:24.300Z,11.68
2023-05-07T23:18:54.546Z,11.68
2023-05-07T23:21:25.129Z,11.68
2023-05-07T23:23:56.082Z,11.67
2023-05-07T23:26:26.963Z,11.73
2023-05-07T23:28:57.195Z,11.68
2023-05-07T23:31:30.327Z,11.62
2023-05-07T23:34:00.684Z,11.53
2023-05-07T23:36:31.662Z,11.52
2023-05-07T23:39:01.864Z,11.47
2023-05-07T23:41:32.200Z,11.50
2023-05-07T23:44:05.677Z,11.48
2023-05-07T23:46:38.896Z,11.42
2023-05-07T23:49:09.346Z,11.38
2023-05-07T23:51:39.732Z,11.31
2023-05-07T23:54:09.988Z,11.31
2023-05-07T23:56:40.276Z,11.27
2023-05-07T23:59:12.921Z,11.25
